createdAt,value
2023-04-07T00:03:07.232Z,3.10
2023-04-07T00:08:10.462Z,2.60
2023-04-07T00:13:13.436Z,2.37
2023-04-07T00:18:17.969Z,2.07
2023-04-07T00:23:21.273Z,2.40
2023-04-07T00:28:24.396Z,2.30
2023-04-07T00:33:28.740Z,2.07
2023-04-07T00:38:31.742Z,2.23
2023-04-07T00:43:35.033Z,1.57
2023-04-07T00:48:39.475Z,1.60
2023-04-07T00:53:42.756Z,2.10
2023-04-07T00:58:45.926Z,2.30
2023-04-07T01:03:58.746Z,2.17
2023-04-07T01:09:08.598Z,1.60
2023-04-07T01:14:14.599Z,1.83
2023-04-07T01:19:35.317Z,1.40
2023-04-07T01:25:07.217Z,2.10
2023-04-07T01:30:14.172Z,2.27
2023-04-07T01:35:19.021Z,1.50
2023-04-07T01:40:23.642Z,1.40
2023-04-07T01:45:28.543Z,1.40
2023-04-07T01:50:32.072Z,1.57
2023-04-07T01:55:35.606Z,0.93
2023-04-07T02:00:44.000Z,1.63
2023-04-07T02:05:55.800Z,1.03
2023-04-07T02:11:03.930Z,0.70
2023-04-07T02:16:13.493Z,1.10
2023-04-07T02:21:18.572Z,1.20
2023-04-07T02:26:21.794Z,0.90
2023-04-07T02:31:26.784Z,0.90
2023-04-07T02:36:29.867Z,0.97
2023-04-07T02:41:32.930Z,1.07
2023-04-07T02:46:37.808Z,0.93
2023-04-07T02:51:40.925Z,1.10
2023-04-07T02:56:43.961Z,1.07
2023-04-07T03:01:48.412Z,1.00
2023-04-07T03:06:52.503Z,1.30
2023-04-07T03:11:56.675Z,1.00
2023-04-07T03:17:03.025Z,1.20
2023-04-07T03:22:07.089Z,1.03
2023-04-07T03:27:13.630Z,1.43
2023-04-07T03:32:23.652Z,1.30
2023-04-07T03:37:26.985Z,1.80
2023-04-07T03:42:31.679Z,1.80
2023-04-07T03:47:41.195Z,1.60
2023-04-07T03:52:44.370Z,3.37
2023-04-07T03:57:57.973Z,2.40
2023-04-07T04:03:06.404Z,2.20
2023-04-07T04:08:11.849Z,2.67
2023-04-07T04:13:16.997Z,3.13
2023-04-07T04:18:21.566Z,2.60
2023-04-07T04:23:24.834Z,2.60
2023-04-07T04:28:31.209Z,3.33
2023-04-07T04:33:36.098Z,2.97
2023-04-07T04:38:39.639Z,2.77
2023-04-07T04:43:52.828Z,2.90
2023-04-07T04:49:01.103Z,2.63
2023-04-07T04:54:06.357Z,3.00
2023-04-07T04:59:10.399Z,2.37
2023-04-07T05:04:31.981Z,2.80
2023-04-07T05:09:49.452Z,2.93
2023-04-07T05:14:54.968Z,2.60
2023-04-07T05:19:59.490Z,2.03
2023-04-07T05:25:14.500Z,2.37
2023-04-07T05:30:20.729Z,2.10
2023-04-07T05:35:25.414Z,2.03
2023-04-07T05:40:32.392Z,1.93
2023-04-07T05:45:38.824Z,2.23
2023-04-07T05:50:44.763Z,2.53
2023-04-07T05:55:51.834Z,2.20
2023-04-07T06:01:15.003Z,2.27
2023-04-07T06:06:20.432Z,4.13
2023-04-07T06:11:23.473Z,3.23
2023-04-07T06:16:26.621Z,2.73
2023-04-07T06:21:31.466Z,2.23
2023-04-07T06:26:34.567Z,2.73
2023-04-07T06:31:37.682Z,2.83
2023-04-07T06:36:42.324Z,2.07
2023-04-07T06:41:45.365Z,1.93
2023-04-07T06:46:50.361Z,2.20
2023-04-07T06:51:54.722Z,1.83
2023-04-07T06:56:57.765Z,2.00
2023-04-07T07:02:00.833Z,2.17
2023-04-07T07:07:05.262Z,1.93
2023-04-07T07:12:08.532Z,2.13
2023-04-07T07:17:11.536Z,1.73
2023-04-07T07:22:15.916Z,1.63
2023-04-07T07:27:18.908Z,1.40
2023-04-07T07:32:21.952Z,1.53
2023-04-07T07:37:26.371Z,1.53
2023-04-07T07:42:29.395Z,1.33
2023-04-07T07:47:32.997Z,1.47
2023-04-07T07:52:37.584Z,1.40
2023-04-07T07:57:40.689Z,1.27
2023-04-07T08:03:02.319Z,1.70
2023-04-07T08:08:25.365Z,1.30
2023-04-07T08:13:47.279Z,1.40
2023-04-07T08:19:08.998Z,1.37
2023-04-07T08:24:32.922Z,1.27
2023-04-07T08:30:00.611Z,1.43
2023-04-07T08:35:22.530Z,1.33
2023-04-07T08:40:45.433Z,1.50
2023-04-07T08:46:10.605Z,1.60
2023-04-07T08:51:33.757Z,1.23
2023-04-07T08:56:58.789Z,1.30
2023-04-07T09:02:23.260Z,1.00
2023-04-07T09:07:45.093Z,1.00
2023-04-07T09:13:08.163Z,1.10
2023-04-07T09:18:29.996Z,1.13
2023-04-07T09:23:34.925Z,1.37
2023-04-07T09:28:45.112Z,1.60
2023-04-07T09:33:48.657Z,1.50
2023-04-07T09:38:52.471Z,1.70
2023-04-07T09:43:58.996Z,1.30
2023-04-07T09:49:05.795Z,1.50
2023-04-07T09:54:09.639Z,1.37
2023-04-07T09:59:17.408Z,1.50
2023-04-07T10:04:20.786Z,1.50
2023-04-07T10:09:24.903Z,1.53
2023-04-07T10:14:32.443Z,1.80
2023-04-07T10:19:37.053Z,1.17
2023-04-07T10:24:52.164Z,1.90
2023-04-07T10:29:58.503Z,1.00
2023-04-07T10:35:02.145Z,1.67
2023-04-07T10:40:30.733Z,1.60
2023-04-07T10:45:59.409Z,1.40
2023-04-07T10:51:18.941Z,1.40
2023-04-07T10:56:22.034Z,1.30
2023-04-07T11:01:26.460Z,1.40
2023-04-07T11:06:29.480Z,1.27
2023-04-07T11:11:42.887Z,1.20
2023-04-07T11:16:47.327Z,1.23
2023-04-07T11:21:50.627Z,1.17
2023-04-07T11:26:53.670Z,1.30
2023-04-07T11:32:00.239Z,1.80
2023-04-07T11:37:22.359Z,1.70
2023-04-07T11:42:46.232Z,1.30
2023-04-07T11:48:27.280Z,1.40
2023-04-07T11:53:31.812Z,1.40
2023-04-07T11:58:35.005Z,1.60
2023-04-07T12:03:45.571Z,2.00
2023-04-07T12:08:48.907Z,1.63
2023-04-07T12:13:51.963Z,1.77
2023-04-07T12:18:56.415Z,2.00
2023-04-07T12:23:59.428Z,1.60
2023-04-07T12:29:05.078Z,1.67
2023-04-07T12:34:09.562Z,1.33
2023-04-07T12:39:12.609Z,1.73
2023-04-07T12:44:16.057Z,1.40
2023-04-07T12:49:20.488Z,1.43
2023-04-07T12:54:23.977Z,1.40
2023-04-07T12:59:27.346Z,1.50
2023-04-07T13:04:32.041Z,1.33
2023-04-07T13:09:35.351Z,1.63
2023-04-07T13:14:46.161Z,1.53
2023-04-07T13:19:57.926Z,1.70
2023-04-07T13:25:02.007Z,1.50
2023-04-07T13:30:05.830Z,1.60
2023-04-07T13:35:10.855Z,1.77
2023-04-07T13:40:14.283Z,1.70
2023-04-07T13:45:17.264Z,1.50
2023-04-07T13:50:21.834Z,1.67
2023-04-07T13:55:24.860Z,1.97
2023-04-07T14:00:27.874Z,1.97
2023-04-07T14:05:32.310Z,1.70
2023-04-07T14:10:36.200Z,1.57
2023-04-07T14:15:39.221Z,1.53
2023-04-07T14:20:43.629Z,1.43
2023-04-07T14:25:47.547Z,1.27
2023-04-07T14:30:50.533Z,1.30
2023-04-07T14:35:54.992Z,1.37
2023-04-07T14:41:09.802Z,1.00
2023-04-07T14:46:14.842Z,1.17
2023-04-07T14:51:19.745Z,1.00
2023-04-07T14:56:22.843Z,1.07
2023-04-07T15:01:25.935Z,1.60
2023-04-07T15:06:31.840Z,1.20
2023-04-07T15:11:34.904Z,1.20
2023-04-07T15:16:37.992Z,1.40
2023-04-07T15:21:42.524Z,1.00
2023-04-07T15:26:45.606Z,1.20
2023-04-07T15:31:48.746Z,0.97
2023-04-07T15:36:53.309Z,1.07
2023-04-07T15:41:56.674Z,1.17
2023-04-07T15:46:59.816Z,1.20
2023-04-07T15:52:05.148Z,1.20
2023-04-07T15:57:08.181Z,1.37
2023-04-07T16:02:13.031Z,1.10
2023-04-07T16:07:18.771Z,1.37
2023-04-07T16:12:22.362Z,1.33
2023-04-07T16:17:25.480Z,1.27
2023-04-07T16:22:29.931Z,1.10
2023-04-07T16:27:33.101Z,1.20
2023-04-07T16:32:36.609Z,1.30
2023-04-07T16:37:41.925Z,1.30
2023-04-07T16:42:44.953Z,1.40
2023-04-07T16:47:48.039Z,1.60
2023-04-07T16:52:52.750Z,1.40
2023-04-07T16:57:55.899Z,1.33
2023-04-07T17:02:59.075Z,1.47
2023-04-07T17:08:03.597Z,1.20
2023-04-07T17:13:06.645Z,1.40
2023-04-07T17:18:09.698Z,1.17
2023-04-07T17:23:14.304Z,1.57
2023-04-07T17:28:17.662Z,1.37
2023-04-07T17:33:20.756Z,1.80
2023-04-07T17:38:25.251Z,1.40
2023-04-07T17:43:28.624Z,1.43
2023-04-07T17:48:32.273Z,1.70
2023-04-07T17:53:36.808Z,1.50
2023-04-07T17:58:39.814Z,1.43
2023-04-07T18:03:42.940Z,1.37
2023-04-07T18:08:48.356Z,1.50
2023-04-07T18:13:51.536Z,1.40
2023-04-07T18:18:54.740Z,1.40
2023-04-07T18:23:59.160Z,1.30
2023-04-07T18:29:02.239Z,1.60
2023-04-07T18:34:05.350Z,1.60
2023-04-07T18:39:09.782Z,1.63
2023-04-07T18:44:13.041Z,1.70
2023-04-07T18:49:16.995Z,2.00
2023-04-07T18:54:21.936Z,1.77
2023-04-07T18:59:25.930Z,1.97
2023-04-07T19:04:28.961Z,2.03
2023-04-07T19:09:33.458Z,2.37
2023-04-07T19:14:36.466Z,2.47
2023-04-07T19:19:39.560Z,2.20
2023-04-07T19:24:44.082Z,2.03
2023-04-07T19:29:47.274Z,2.20
2023-04-07T19:34:50.467Z,2.43
2023-04-07T19:40:02.265Z,2.40
2023-04-07T19:45:08.157Z,2.37
2023-04-07T19:50:14.157Z,2.60
2023-04-07T19:55:18.745Z,2.70
2023-04-07T20:00:22.055Z,2.83
2023-04-07T20:05:25.031Z,2.60
2023-04-07T20:10:29.720Z,2.87
2023-04-07T20:15:32.766Z,2.67
2023-04-07T20:20:36.842Z,2.50
2023-04-07T20:25:42.411Z,2.83
2023-04-07T20:30:45.596Z,2.90
2023-04-07T20:35:49.417Z,2.60
2023-04-07T20:40:54.062Z,2.97
2023-04-07T20:45:57.994Z,3.30
2023-04-07T20:51:01.287Z,3.00
2023-04-07T20:56:05.750Z,3.40
2023-04-07T21:01:08.836Z,3.77
2023-04-07T21:06:11.862Z,3.50
2023-04-07T21:11:16.384Z,3.73
2023-04-07T21:16:19.959Z,2.77
2023-04-07T21:21:23.106Z,3.20
2023-04-07T21:26:27.572Z,2.90
2023-04-07T21:31:30.603Z,3.57
2023-04-07T21:36:33.797Z,3.20
2023-04-07T21:41:38.177Z,3.67
2023-04-07T21:46:41.548Z,3.23
2023-04-07T21:51:44.669Z,3.03
2023-04-07T21:56:51.508Z,3.23
2023-04-07T22:01:55.075Z,3.17
2023-04-07T22:06:58.188Z,2.97
2023-04-07T22:12:03.768Z,3.03
2023-04-07T22:17:07.279Z,2.70
2023-04-07T22:22:10.366Z,2.87
2023-04-07T22:27:14.755Z,2.87
2023-04-07T22:32:17.903Z,3.40
2023-04-07T22:37:21.732Z,2.97
2023-04-07T22:42:26.092Z,3.03
2023-04-07T22:47:29.166Z,3.03
2023-04-07T22:52:32.347Z,3.43
2023-04-07T22:57:36.888Z,3.00
2023-04-07T23:02:40.097Z,3.23
2023-04-07T23:07:43.268Z,2.63
2023-04-07T23:12:47.644Z,3.03
2023-04-07T23:17:50.912Z,3.17
2023-04-07T23:22:53.911Z,3.03
2023-04-07T23:27:58.280Z,3.23
2023-04-07T23:33:01.277Z,3.13
2023-04-07T23:38:04.421Z,3.27
2023-04-07T23:43:08.786Z,3.60
2023-04-07T23:48:11.786Z,3.10
2023-04-07T23:53:14.814Z,2.80
2023-04-07T23:58:19.172Z,2.93
